KSMFKPRB

Guest
Details From KSMF - Sacramento Intl
To KPRB - PASO ROBLES MUNI
Flight Number -
Tags generated
Created
Modified
Stats Distance 187 nm / 347 km
Max Altitude 21,600 ft / 6,584 m
Waypoints 3
Social Downloads 0
Likes 0
Share VATSIM

Download

Looking for another format? Having issues loading an existing format? Contact us
Advertisement - Login to hide

Notes

Basic altitude profile: - Ascent Rate: 1500ft/min - Ascent Speed: 200kts - Cruise Altitude: 21500ft - Cruise Speed: 333kts - Descent Rate: 1500ft/min - Descent Speed: 222kts Options: - Use NATs: yes - Use PACOTS: yes - Use low airways: yes - Use high airways: yes

Route

KSMF WINDY KPRB

ID Type Via Altitude Latitude Longitude Leg Dist Tot Dist Heading (true) Name
O KSMF APT - 0 ft / 0 m 38.69543˚ -121.59077˚ - 0 nm - Sacramento Intl
WINDY FIX - 21,600 ft / 6,584 m 37.29360˚ -121.18354˚ 86 nm 86 nm 167° / 167° -
O KPRB APT - 0 ft / 0 m 35.67281˚ -120.62656˚ 100 nm 187 nm 164° / 165° PASO ROBLES MUNI

Altitude Profile

Advertisement - Login to hide

Weather


0- 5 10 15 20 25 30 35+ Temperature / ° C

Clouds and Precipitation
Forecast for 2017-12-18 12:00 UTC. Updated 2 hours ago

Ground ~20,000 ft ~40,000 ft Winds

KSMF

Details ICAO KSMF (SMF)
Name Sacramento Intl
Region United States
Timezone America/Los_Angeles (UTC-8.0)
Stats Elevation 27 ft / 8 m (AMSL)
Location 38.695431° -121.590769°
Runways 2
Magnetic Variation 13.572° E

METAR

KSMF 181053Z 00000KT 10SM FEW250 03/03 A3018 RMK AO2 SLP219 T00280028

Decode

TAF

KSMF 180524Z 1806/1906 VRB05KT P6SM FEW250

Decode

Departure Runways

ID Width Length Bearing (true) Bearing (mag) Surface Threshold Offset Overrun Length
16L 151 ft / 46 m 8,618 ft / 2,627 m 180.73° 167.16° Concrete 499 ft / 152 m 256 ft / 78 m
16R 151 ft / 46 m 8,614 ft / 2,626 m 180.75° 167.18° Asphalt 499 ft / 152 m 171 ft / 52 m
34L 151 ft / 46 m 8,614 ft / 2,626 m 0.75° 347.18° Asphalt 499 ft / 152 m 157 ft / 48 m
34R 151 ft / 46 m 8,618 ft / 2,627 m 0.73° 347.16° Concrete 499 ft / 152 m 262 ft / 80 m

KPRB

Details ICAO KPRB
Name PASO ROBLES MUNI
Region United States
Timezone America/Los_Angeles (UTC-8.0)
Stats Elevation 836 ft / 255 m (AMSL)
Location 35.672813° -120.626559°
Runways 2
Magnetic Variation 12.765° E

METAR

KPRB 181053Z AUTO 20003KT 10SM CLR 01/M04 A3016 RMK AO2 SLP212 T00061044

Decode

TAF

KPRB 180535Z 1806/1906 VRB03KT P6SM SKC FM190100 10007KT P6SM SKC

Decode

Destination Runways

ID Width Length Bearing (true) Bearing (mag) Surface Threshold Offset Overrun Length
01 150 ft / 46 m 6,016 ft / 1,834 m 28.54° 15.78° Asphalt 0 ft / 0 m 0 ft / 0 m
13 100 ft / 30 m 4,704 ft / 1,434 m 143.77° 131.01° Asphalt 0 ft / 0 m 0 ft / 0 m
19 150 ft / 46 m 6,016 ft / 1,834 m 208.54° 195.78° Asphalt 0 ft / 0 m 0 ft / 0 m
31 100 ft / 30 m 4,704 ft / 1,434 m 323.77° 311.01° Asphalt 0 ft / 0 m 0 ft / 0 m